Time;durP1;ratioP1;P1;durP2;ratioP2;P2;SDS_P1;SDS_P2;PMS_P1;PMS_P2;Temp;Humidity;BMP_temperature;BMP_pressure;BME280_temperature;BME280_humidity;BME280_pressure;Samples;Min_cycle;Max_cycle;Signal;HPM_P1;HPM_P2
2022/11/28 00:00:57;;;;;;;;;14.25;14.25;;;;;;;;4938566;29;10886;-84
2022/11/28 00:03:25;;;;;;;;;14.25;14.25;;;;;;;;4948040;29;10828;-84
2022/11/28 00:05:53;;;;;;;;;18.75;15.00;;;;;;;;4945003;29;10775;-85
2022/11/28 00:08:23;;;;;;;;;16.75;16.75;;;;;;;;4947225;29;10848;-85
2022/11/28 00:10:51;;;;;;;;;13.75;13.75;;;;;;;;4941815;29;10859;-85
2022/11/28 00:13:18;;;;;;;;;18.75;17.75;;;;;;;;4942490;29;10843;-84
2022/11/28 00:15:46;;;;;;;;;16.00;14.25;;;;;;;;4945220;29;10789;-85
2022/11/28 00:18:14;;;;;;;;;15.50;15.50;;;;;;;;4942967;29;11007;-85
2022/11/28 00:20:41;;;;;;;;;13.25;13.25;;;;;;;;4936275;29;10843;-84
2022/11/28 00:23:09;;;;;;;;;15.00;15.00;;;;;;;;4931916;29;11043;-85
2022/11/28 00:25:38;;;;;;;;;17.75;17.75;;;;;;;;4934395;29;11009;-85
2022/11/28 00:28:05;;;;;;;;;16.50;16.50;;;;;;;;4943246;29;10966;-85
2022/11/28 00:30:37;;;;;;;;;15.25;15.25;;;;;;;;4941930;29;11027;-85
2022/11/28 00:33:04;;;;;;;;;14.25;14.25;;;;;;;;4940572;29;11050;-85
2022/11/28 00:35:32;;;;;;;;;14.75;14.75;;;;;;;;4943676;29;10833;-84
2022/11/28 00:38:01;;;;;;;;;11.25;10.50;;;;;;;;4943427;29;10880;-84
2022/11/28 00:40:29;;;;;;;;;16.75;16.75;;;;;;;;4940103;29;10896;-84
2022/11/28 00:42:58;;;;;;;;;19.75;16.75;;;;;;;;4932906;29;10716;-86
2022/11/28 00:45:25;;;;;;;;;15.25;14.00;;;;;;;;4930530;29;10779;-86
2022/11/28 00:47:53;;;;;;;;;17.00;17.00;;;;;;;;4929727;29;11592;-86
2022/11/28 00:50:21;;;;;;;;;11.50;11.50;;;;;;;;4929111;29;10774;-86
2022/11/28 00:52:49;;;;;;;;;14.00;12.00;;;;;;;;4929484;29;10715;-86
2022/11/28 00:55:17;;;;;;;;;15.75;14.00;;;;;;;;4932014;29;10529;-86
2022/11/28 00:57:44;;;;;;;;;17.00;15.25;;;;;;;;4928556;29;10745;-87
2022/11/28 01:00:15;;;;;;;;;10.00;10.00;;;;;;;;4927563;29;10790;-86
2022/11/28 01:02:43;;;;;;;;;12.75;12.25;;;;;;;;4928753;29;10685;-86
2022/11/28 01:05:11;;;;;;;;;12.75;11.75;;;;;;;;4932049;29;10766;-87
2022/11/28 01:07:41;;;;;;;;;13.25;12.25;;;;;;;;4930850;29;10764;-85
2022/11/28 01:10:10;;;;;;;;;12.50;12.50;;;;;;;;4934316;29;10565;-86
2022/11/28 01:12:38;;;;;;;;;9.50;9.00;;;;;;;;4936472;29;10758;-86
2022/11/28 01:15:07;;;;;;;;;11.25;9.75;;;;;;;;4930724;29;10799;-86
2022/11/28 01:17:37;;;;;;;;;10.50;10.50;;;;;;;;4928412;29;11297;-87
2022/11/28 01:20:06;;;;;;;;;12.25;12.25;;;;;;;;4929252;29;10663;-86
2022/11/28 01:22:34;;;;;;;;;11.75;10.00;;;;;;;;4929554;29;10621;-85
2022/11/28 01:25:02;;;;;;;;;11.00;9.00;;;;;;;;4930475;29;10510;-84
2022/11/28 01:27:30;;;;;;;;;13.50;11.00;;;;;;;;4930564;28;10615;-85
2022/11/28 01:29:57;;;;;;;;;9.25;9.25;;;;;;;;4931123;29;11325;-85
2022/11/28 01:32:25;;;;;;;;;9.50;8.00;;;;;;;;4928624;29;10572;-85
2022/11/28 01:34:54;;;;;;;;;9.50;9.50;;;;;;;;4927961;29;10537;-86
2022/11/28 01:37:22;;;;;;;;;10.50;10.50;;;;;;;;4929183;29;10605;-85
2022/11/28 01:39:50;;;;;;;;;11.50;11.50;;;;;;;;4928016;29;10513;-84
2022/11/28 01:42:18;;;;;;;;;11.50;9.75;;;;;;;;4927506;29;10608;-85
2022/11/28 01:45:13;;;;;;;;;9.75;9.75;;;;;;;;4926279;29;10615;-85
2022/11/28 01:47:40;;;;;;;;;13.00;10.25;;;;;;;;4927947;29;10652;-86
2022/11/28 01:50:12;;;;;;;;;10.00;9.00;;;;;;;;4927110;29;10824;-86
2022/11/28 01:52:43;;;;;;;;;10.25;10.25;;;;;;;;4928811;29;10596;-84
2022/11/28 01:55:13;;;;;;;;;13.75;11.25;;;;;;;;4929670;29;10602;-86
2022/11/28 01:57:41;;;;;;;;;14.25;12.00;;;;;;;;4933856;29;10710;-85
2022/11/28 02:00:11;;;;;;;;;8.75;8.50;;;;;;;;4940647;29;10781;-84
2022/11/28 02:02:41;;;;;;;;;16.00;12.75;;;;;;;;4938702;29;10765;-84
2022/11/28 02:05:11;;;;;;;;;9.25;9.25;;;;;;;;4935837;29;10891;-84
2022/11/28 02:07:38;;;;;;;;;9.00;9.00;;;;;;;;4934364;29;10832;-84
2022/11/28 02:10:08;;;;;;;;;8.75;8.75;;;;;;;;4938244;29;10758;-83
2022/11/28 02:12:53;;;;;;;;;10.50;10.50;;;;;;;;4937240;29;10874;-85
2022/11/28 02:15:34;;;;;;;;;14.25;13.00;;;;;;;;4941569;29;10838;-84
2022/11/28 02:18:10;;;;;;;;;10.75;10.00;;;;;;;;4930018;29;10773;-85
2022/11/28 02:21:10;;;;;;;;;14.00;12.25;;;;;;;;4943650;29;10722;-85
2022/11/28 02:24:02;;;;;;;;;12.50;11.50;;;;;;;;4932179;29;10684;-85
2022/11/28 02:26:47;;;;;;;;;10.75;10.75;;;;;;;;4946603;29;10599;-84
2022/11/28 02:29:32;;;;;;;;;9.50;9.50;;;;;;;;4946025;29;10878;-85
2022/11/28 02:32:31;;;;;;;;;10.25;10.00;;;;;;;;4945495;29;11650;-85
2022/11/28 02:35:03;;;;;;;;;6.00;6.00;;;;;;;;4933446;29;10664;-86
2022/11/28 02:37:36;;;;;;;;;11.00;11.00;;;;;;;;4935337;29;10846;-84
2022/11/28 02:40:09;;;;;;;;;16.25;11.75;;;;;;;;4930835;29;10634;-85
2022/11/28 02:42:46;;;;;;;;;12.25;11.25;;;;;;;;4927479;29;10796;-83
2022/11/28 02:45:28;;;;;;;;;14.75;14.75;;;;;;;;4926416;29;11359;-86
2022/11/28 02:48:02;;;;;;;;;10.00;10.00;;;;;;;;4921742;29;10587;-85
2022/11/28 02:50:33;;;;;;;;;10.50;10.50;;;;;;;;4926374;29;10806;-85
2022/11/28 02:53:05;;;;;;;;;11.50;11.50;;;;;;;;4926923;29;10699;-85
2022/11/28 02:55:33;;;;;;;;;12.75;12.75;;;;;;;;4927185;29;11439;-85
2022/11/28 02:58:01;;;;;;;;;11.00;11.00;;;;;;;;4928127;29;10527;-83
2022/11/28 03:00:31;;;;;;;;;8.00;8.00;;;;;;;;4929046;29;10585;-84
2022/11/28 03:03:11;;;;;;;;;16.25;16.25;;;;;;;;4929397;29;10611;-84
2022/11/28 03:05:44;;;;;;;;;12.50;12.50;;;;;;;;4929454;29;10715;-84
2022/11/28 03:08:24;;;;;;;;;14.25;10.25;;;;;;;;4933801;29;10541;-84
2022/11/28 03:10:55;;;;;;;;;14.25;14.25;;;;;;;;4931978;29;10582;-85
2022/11/28 03:13:29;;;;;;;;;15.75;15.75;;;;;;;;4932398;29;10705;-85
2022/11/28 03:16:05;;;;;;;;;15.00;12.75;;;;;;;;4931105;29;10542;-85
2022/11/28 03:18:39;;;;;;;;;10.50;10.50;;;;;;;;4923678;29;10572;-85
2022/11/28 03:21:12;;;;;;;;;11.00;11.00;;;;;;;;4926503;29;10646;-85
2022/11/28 03:23:44;;;;;;;;;15.50;12.75;;;;;;;;4921931;29;10573;-86
2022/11/28 03:26:19;;;;;;;;;14.25;12.00;;;;;;;;4930515;29;10695;-86
2022/11/28 03:28:51;;;;;;;;;11.25;11.25;;;;;;;;4935678;29;10550;-85
2022/11/28 03:31:22;;;;;;;;;12.00;11.00;;;;;;;;4935280;29;10602;-86
2022/11/28 03:33:55;;;;;;;;;16.25;14.00;;;;;;;;4936087;29;10580;-85
2022/11/28 03:36:27;;;;;;;;;11.75;11.75;;;;;;;;4932845;29;10582;-84
2022/11/28 03:38:59;;;;;;;;;20.00;18.25;;;;;;;;4927318;29;10507;-85
2022/11/28 03:41:33;;;;;;;;;15.50;15.50;;;;;;;;4929341;29;10765;-86
2022/11/28 03:44:03;;;;;;;;;21.25;18.25;;;;;;;;4925755;29;10572;-86
2022/11/28 03:46:36;;;;;;;;;14.50;14.50;;;;;;;;4925821;29;10748;-86
2022/11/28 03:49:08;;;;;;;;;16.25;16.25;;;;;;;;4930301;29;10605;-86
2022/11/28 03:51:39;;;;;;;;;16.00;16.00;;;;;;;;4932251;29;10603;-85
2022/11/28 03:54:11;;;;;;;;;13.00;10.50;;;;;;;;4930212;29;10611;-87
2022/11/28 03:56:44;;;;;;;;;10.25;10.25;;;;;;;;4943479;29;10666;-86
2022/11/28 03:59:16;;;;;;;;;14.50;12.75;;;;;;;;4934145;29;10670;-86
2022/11/28 04:01:53;;;;;;;;;12.75;12.75;;;;;;;;4933076;29;10643;-87
2022/11/28 04:04:27;;;;;;;;;14.75;13.50;;;;;;;;4933445;29;10506;-86
2022/11/28 04:06:57;;;;;;;;;11.25;11.25;;;;;;;;4930930;29;10629;-86
2022/11/28 04:09:36;;;;;;;;;16.00;14.50;;;;;;;;4931761;29;10602;-87
2022/11/28 04:12:10;;;;;;;;;17.50;17.25;;;;;;;;4932355;29;10738;-86
2022/11/28 04:14:42;;;;;;;;;16.75;15.00;;;;;;;;4930180;29;10695;-86
2022/11/28 04:17:13;;;;;;;;;17.00;14.25;;;;;;;;4933593;29;10838;-85
2022/11/28 04:19:45;;;;;;;;;14.25;14.25;;;;;;;;4935434;29;10710;-87
2022/11/28 04:22:16;;;;;;;;;15.75;11.25;;;;;;;;4932207;29;10692;-86
2022/11/28 04:24:47;;;;;;;;;16.00;14.50;;;;;;;;4933433;29;10622;-86
2022/11/28 04:27:22;;;;;;;;;14.50;14.50;;;;;;;;4940707;29;10521;-85
2022/11/28 04:29:52;;;;;;;;;11.75;11.75;;;;;;;;4940637;29;10516;-86
2022/11/28 04:32:22;;;;;;;;;13.00;13.00;;;;;;;;4931760;29;10731;-86
2022/11/28 04:34:55;;;;;;;;;19.50;19.00;;;;;;;;4930290;29;10468;-87
2022/11/28 04:37:24;;;;;;;;;16.75;14.00;;;;;;;;4931171;29;10652;-85
2022/11/28 04:39:53;;;;;;;;;19.00;16.00;;;;;;;;4930874;29;10575;-86
2022/11/28 04:42:23;;;;;;;;;19.75;18.00;;;;;;;;4933762;29;10539;-85
2022/11/28 04:44:55;;;;;;;;;16.75;15.00;;;;;;;;4933250;29;10590;-85
2022/11/28 04:47:23;;;;;;;;;18.75;16.25;;;;;;;;4930416;29;10543;-86
2022/11/28 04:49:53;;;;;;;;;14.75;12.00;;;;;;;;4928487;29;10616;-85
2022/11/28 04:52:23;;;;;;;;;16.50;16.50;;;;;;;;4930927;28;10559;-85
2022/11/28 04:54:59;;;;;;;;;14.50;13.75;;;;;;;;4930611;29;10645;-86
2022/11/28 04:57:32;;;;;;;;;18.00;18.00;;;;;;;;4929504;29;10554;-86
2022/11/28 05:00:04;;;;;;;;;14.00;14.00;;;;;;;;4940437;29;10516;-85
2022/11/28 05:02:33;;;;;;;;;20.75;16.75;;;;;;;;4944834;29;10461;-84
2022/11/28 05:05:04;;;;;;;;;20.25;15.00;;;;;;;;4947282;29;10570;-85
2022/11/28 05:07:32;;;;;;;;;18.25;15.00;;;;;;;;4944609;29;10604;-85
2022/11/28 05:09:59;;;;;;;;;28.25;27.00;;;;;;;;4939025;29;10593;-85
2022/11/28 05:12:27;;;;;;;;;11.75;10.25;;;;;;;;4936632;29;10946;-85
2022/11/28 05:14:55;;;;;;;;;18.50;15.75;;;;;;;;4936973;29;10464;-85
2022/11/28 05:17:38;;;;;;;;;16.00;15.00;;;;;;;;4940563;29;10595;-85
2022/11/28 05:20:09;;;;;;;;;17.25;15.75;;;;;;;;4941010;28;10519;-86
2022/11/28 05:22:37;;;;;;;;;18.50;16.75;;;;;;;;4943728;29;10514;-86
2022/11/28 05:25:06;;;;;;;;;22.25;18.75;;;;;;;;4943192;29;10564;-86
2022/11/28 05:27:33;;;;;;;;;18.75;17.25;;;;;;;;4941354;29;10549;-86
2022/11/28 05:30:01;;;;;;;;;18.50;16.50;;;;;;;;4928736;29;10471;-85
2022/11/28 05:32:30;;;;;;;;;17.50;14.00;;;;;;;;4930080;29;10463;-86
2022/11/28 05:34:57;;;;;;;;;17.25;14.50;;;;;;;;4928399;29;10464;-85
2022/11/28 05:37:27;;;;;;;;;14.50;14.50;;;;;;;;4928882;29;10469;-86
2022/11/28 05:39:54;;;;;;;;;21.00;17.00;;;;;;;;4927446;29;10374;-86
2022/11/28 05:42:24;;;;;;;;;17.00;13.25;;;;;;;;4928849;29;10383;-85
2022/11/28 05:44:53;;;;;;;;;18.00;14.25;;;;;;;;4927146;29;10300;-86
2022/11/28 05:47:22;;;;;;;;;23.50;20.75;;;;;;;;4926988;29;10464;-86
2022/11/28 05:49:50;;;;;;;;;15.50;14.50;;;;;;;;4929652;29;10402;-86
2022/11/28 05:52:18;;;;;;;;;16.75;15.00;;;;;;;;4928629;29;10312;-86
2022/11/28 05:54:47;;;;;;;;;15.50;15.50;;;;;;;;4929082;29;10435;-85
2022/11/28 05:57:14;;;;;;;;;16.75;16.75;;;;;;;;4928922;29;10421;-86
2022/11/28 05:59:42;;;;;;;;;18.00;17.25;;;;;;;;4926053;29;10521;-86
2022/11/28 06:02:10;;;;;;;;;19.25;16.25;;;;;;;;4933255;29;10452;-86
2022/11/28 06:04:40;;;;;;;;;17.00;15.25;;;;;;;;4923275;29;10425;-86
2022/11/28 06:07:08;;;;;;;;;12.50;12.00;;;;;;;;4931301;29;10490;-87
2022/11/28 06:09:36;;;;;;;;;14.25;14.25;;;;;;;;4932845;29;11252;-87
2022/11/28 06:12:05;;;;;;;;;21.50;17.25;;;;;;;;4930803;29;10564;-86
2022/11/28 06:14:33;;;;;;;;;22.00;17.00;;;;;;;;4934405;29;10344;-85
2022/11/28 06:17:00;;;;;;;;;14.50;14.25;;;;;;;;4930316;29;10569;-83
2022/11/28 06:19:28;;;;;;;;;20.50;16.00;;;;;;;;4926321;29;10459;-87
2022/11/28 06:21:56;;;;;;;;;15.75;11.25;;;;;;;;4928321;29;10522;-87
2022/11/28 06:24:23;;;;;;;;;17.50;17.50;;;;;;;;4928261;29;10549;-87
2022/11/28 06:26:51;;;;;;;;;17.75;17.75;;;;;;;;4924361;29;10447;-87
2022/11/28 06:29:22;;;;;;;;;17.25;17.25;;;;;;;;4929009;29;10556;-88
2022/11/28 06:31:50;;;;;;;;;15.25;15.25;;;;;;;;4934445;29;10518;-86
2022/11/28 06:34:18;;;;;;;;;16.00;16.00;;;;;;;;4924395;29;10398;-88
2022/11/28 06:36:46;;;;;;;;;17.00;16.25;;;;;;;;4924271;29;10452;-87
2022/11/28 06:39:15;;;;;;;;;18.75;15.00;;;;;;;;4924025;29;10367;-86
2022/11/28 06:41:43;;;;;;;;;20.75;17.00;;;;;;;;4927342;29;11329;-88
2022/11/28 06:44:14;;;;;;;;;15.00;15.00;;;;;;;;4929588;29;10660;-87
2022/11/28 06:46:43;;;;;;;;;18.50;17.50;;;;;;;;4924611;29;10387;-90
2022/11/28 06:49:12;;;;;;;;;12.75;11.25;;;;;;;;4925023;29;10421;-90
2022/11/28 06:51:40;;;;;;;;;18.50;16.25;;;;;;;;4924130;29;10390;-85
2022/11/28 06:56:49;;;;;;;;;17.00;13.75;;;;;;;;4927284;29;10683;-75
2022/11/28 06:59:16;;;;;;;;;22.00;16.75;;;;;;;;4924150;29;11283;-75
2022/11/28 07:01:45;;;;;;;;;17.25;15.25;;;;;;;;4924656;29;10678;-74
2022/11/28 07:04:13;;;;;;;;;17.50;17.25;;;;;;;;4925865;29;10583;-76
2022/11/28 07:06:43;;;;;;;;;19.50;17.50;;;;;;;;4926500;29;10537;-74
2022/11/28 07:09:11;;;;;;;;;18.00;17.25;;;;;;;;4924063;29;11290;-74
2022/11/28 07:11:41;;;;;;;;;17.00;15.50;;;;;;;;4925373;29;10651;-76
2022/11/28 07:14:09;;;;;;;;;21.50;17.50;;;;;;;;4922130;29;10374;-74
2022/11/28 07:16:36;;;;;;;;;20.00;17.25;;;;;;;;4923757;29;10474;-73
2022/11/28 07:19:07;;;;;;;;;18.00;16.50;;;;;;;;4923003;29;10438;-73
2022/11/28 07:21:34;;;;;;;;;20.25;19.00;;;;;;;;4925705;29;10640;-73
2022/11/28 07:24:02;;;;;;;;;19.00;16.50;;;;;;;;4926292;29;10341;-74
2022/11/28 07:26:30;;;;;;;;;21.75;17.75;;;;;;;;4927895;29;10521;-76
2022/11/28 07:28:58;;;;;;;;;17.50;17.50;;;;;;;;4926126;29;10481;-78
2022/11/28 07:31:30;;;;;;;;;18.00;18.00;;;;;;;;4926723;28;10472;-74
2022/11/28 07:34:00;;;;;;;;;17.00;17.00;;;;;;;;4928404;29;10441;-74
2022/11/28 07:36:29;;;;;;;;;23.50;19.00;;;;;;;;4925723;29;10462;-73
2022/11/28 07:38:59;;;;;;;;;17.50;16.50;;;;;;;;4926807;29;10472;-74
2022/11/28 07:41:27;;;;;;;;;33.00;33.00;;;;;;;;4927590;29;10395;-74
2022/11/28 07:43:56;;;;;;;;;14.25;13.50;;;;;;;;4926584;29;10962;-74
2022/11/28 07:46:24;;;;;;;;;17.50;17.00;;;;;;;;4927971;29;10572;-73
2022/11/28 07:48:52;;;;;;;;;21.50;20.50;;;;;;;;4923799;29;10376;-73
2022/11/28 07:51:23;;;;;;;;;15.75;15.75;;;;;;;;4926539;29;10658;-73
2022/11/28 07:53:52;;;;;;;;;15.50;14.00;;;;;;;;4925498;29;10597;-73
2022/11/28 07:56:23;;;;;;;;;16.00;15.50;;;;;;;;4927617;29;10465;-73
2022/11/28 07:58:51;;;;;;;;;16.00;13.00;;;;;;;;4928228;28;10472;-74
2022/11/28 08:01:20;;;;;;;;;15.75;12.00;;;;;;;;4925073;29;10267;-74
2022/11/28 08:03:48;;;;;;;;;12.25;12.25;;;;;;;;4927910;29;10350;-73
2022/11/28 08:06:16;;;;;;;;;18.75;15.75;;;;;;;;4922594;29;10302;-73
2022/11/28 08:08:45;;;;;;;;;14.00;13.50;;;;;;;;4924299;29;10377;-74
2022/11/28 08:11:16;;;;;;;;;15.75;15.50;;;;;;;;4925620;29;10170;-73
2022/11/28 08:13:44;;;;;;;;;11.00;11.00;;;;;;;;4926813;29;10308;-72
2022/11/28 08:16:13;;;;;;;;;13.00;11.25;;;;;;;;4929469;29;10256;-73
2022/11/28 08:18:42;;;;;;;;;15.00;14.75;;;;;;;;4927024;29;10192;-73
2022/11/28 08:21:11;;;;;;;;;21.00;16.75;;;;;;;;4927268;29;10081;-73
2022/11/28 08:23:39;;;;;;;;;14.50;14.25;;;;;;;;4924235;29;10271;-74
2022/11/28 08:26:08;;;;;;;;;16.75;13.00;;;;;;;;4924774;29;9995;-72
2022/11/28 08:28:52;;;;;;;;;15.25;15.25;;;;;;;;4923243;29;10263;-72
2022/11/28 08:31:22;;;;;;;;;13.50;11.25;;;;;;;;4926398;29;10079;-73
2022/11/28 08:33:51;;;;;;;;;16.50;16.50;;;;;;;;4926522;29;10047;-72
2022/11/28 08:36:19;;;;;;;;;11.25;11.25;;;;;;;;4925626;29;10224;-71
2022/11/28 08:38:48;;;;;;;;;15.50;14.00;;;;;;;;4923010;29;10075;-72
2022/11/28 08:41:18;;;;;;;;;26.00;17.50;;;;;;;;4924936;29;10004;-73
2022/11/28 08:43:46;;;;;;;;;17.00;13.25;;;;;;;;4924686;29;10963;-72
2022/11/28 08:46:17;;;;;;;;;18.25;15.00;;;;;;;;4922403;28;9865;-71
2022/11/28 08:48:45;;;;;;;;;13.00;9.50;;;;;;;;4923810;29;9893;-72
2022/11/28 08:51:14;;;;;;;;;13.25;11.75;;;;;;;;4923427;29;9695;-72
2022/11/28 08:53:42;;;;;;;;;14.00;12.00;;;;;;;;4924061;29;9641;-72
2022/11/28 08:56:10;;;;;;;;;13.00;11.75;;;;;;;;4922851;29;9647;-73
2022/11/28 08:58:38;;;;;;;;;13.25;11.25;;;;;;;;4920634;29;9778;-72
2022/11/28 09:01:14;;;;;;;;;14.00;13.00;;;;;;;;4912960;29;9750;-72
2022/11/28 09:03:42;;;;;;;;;11.50;9.50;;;;;;;;4925326;29;9666;-71
2022/11/28 09:06:10;;;;;;;;;9.50;9.50;;;;;;;;4923045;29;9738;-71
2022/11/28 09:08:37;;;;;;;;;9.25;7.75;;;;;;;;4924228;29;9953;-71
2022/11/28 09:11:08;;;;;;;;;10.75;9.00;;;;;;;;4925280;29;9788;-71
2022/11/28 09:13:37;;;;;;;;;11.50;9.00;;;;;;;;4923891;29;9736;-71
2022/11/28 09:16:06;;;;;;;;;9.75;7.75;;;;;;;;4922992;29;9749;-73
2022/11/28 09:18:35;;;;;;;;;8.00;8.00;;;;;;;;4926174;29;9893;-72
2022/11/28 09:21:07;;;;;;;;;12.75;9.75;;;;;;;;4922895;29;9896;-71
2022/11/28 09:23:35;;;;;;;;;8.75;8.75;;;;;;;;4926051;29;9804;-72
2022/11/28 09:26:08;;;;;;;;;9.50;8.25;;;;;;;;4922916;29;9815;-74
2022/11/28 09:28:37;;;;;;;;;12.00;12.00;;;;;;;;4923452;29;9962;-73
2022/11/28 09:31:06;;;;;;;;;12.75;10.50;;;;;;;;4927177;29;9972;-74
2022/11/28 09:33:36;;;;;;;;;10.00;8.00;;;;;;;;4926236;29;10036;-71
2022/11/28 09:36:09;;;;;;;;;10.00;9.00;;;;;;;;4923709;29;9802;-72
2022/11/28 09:38:48;;;;;;;;;7.75;7.75;;;;;;;;4924361;29;9805;-72
2022/11/28 09:41:55;;;;;;;;;8.00;5.00;;;;;;;;4927155;29;9831;-73
2022/11/28 09:44:27;;;;;;;;;8.25;8.00;;;;;;;;4825289;29;10582;-72
2022/11/28 09:47:00;;;;;;;;;9.50;8.50;;;;;;;;4844603;29;9774;-72
2022/11/28 09:49:36;;;;;;;;;8.75;8.25;;;;;;;;4875637;29;9711;-73
2022/11/28 09:52:08;;;;;;;;;11.00;10.00;;;;;;;;4921529;29;9660;-72
2022/11/28 09:54:43;;;;;;;;;10.25;9.50;;;;;;;;4920837;29;9589;-73
2022/11/28 09:57:16;;;;;;;;;9.00;9.00;;;;;;;;4925918;29;9676;-72
2022/11/28 09:59:44;;;;;;;;;8.00;7.33;;;;;;;;4921438;29;9327;-72
2022/11/28 10:02:23;;;;;;;;;11.00;11.00;;;;;;;;4922050;29;9448;-73
2022/11/28 10:05:01;;;;;;;;;10.00;8.00;;;;;;;;4918927;29;9335;-72
2022/11/28 10:07:36;;;;;;;;;10.75;8.25;;;;;;;;4918744;28;9594;-72
2022/11/28 10:10:11;;;;;;;;;11.00;9.00;;;;;;;;4920516;29;9464;-71
2022/11/28 10:12:43;;;;;;;;;9.25;8.25;;;;;;;;4921480;29;9515;-73
2022/11/28 10:15:20;;;;;;;;;11.00;9.25;;;;;;;;4922636;29;9602;-72
2022/11/28 10:17:58;;;;;;;;;10.00;9.50;;;;;;;;4922052;29;9472;-73
2022/11/28 10:20:31;;;;;;;;;11.75;10.25;;;;;;;;4924122;29;9484;-72
2022/11/28 10:23:04;;;;;;;;;11.00;10.00;;;;;;;;4922406;29;9546;-73
2022/11/28 10:25:36;;;;;;;;;10.75;8.75;;;;;;;;4920881;29;9640;-73
2022/11/28 10:28:07;;;;;;;;;8.50;8.50;;;;;;;;4924708;29;9534;-72
2022/11/28 10:30:41;;;;;;;;;9.50;8.75;;;;;;;;4925604;29;9465;-72
2022/11/28 10:33:16;;;;;;;;;10.00;9.00;;;;;;;;4920715;29;10358;-73
2022/11/28 10:35:52;;;;;;;;;9.50;8.00;;;;;;;;4926024;29;9724;-72
2022/11/28 10:38:24;;;;;;;;;11.00;11.00;;;;;;;;4922538;29;9628;-73
2022/11/28 10:40:58;;;;;;;;;9.25;9.25;;;;;;;;4922319;29;9407;-72
2022/11/28 10:43:35;;;;;;;;;10.67;8.67;;;;;;;;4921189;29;9553;-72
2022/11/28 10:46:28;;;;;;;;;9.75;8.50;;;;;;;;4924578;29;9400;-72
2022/11/28 10:49:04;;;;;;;;;9.50;9.50;;;;;;;;4917620;29;9414;-72
2022/11/28 10:51:44;;;;;;;;;13.00;8.25;;;;;;;;4926789;29;9566;-72
2022/11/28 10:54:21;;;;;;;;;10.25;8.50;;;;;;;;4924511;29;9440;-72
2022/11/28 10:56:55;;;;;;;;;6.00;6.00;;;;;;;;4919838;29;9593;-72
2022/11/28 10:59:31;;;;;;;;;8.33;6.00;;;;;;;;4921719;29;9492;-72
2022/11/28 11:02:00;;;;;;;;;6.00;5.00;;;;;;;;4920828;29;9431;-75
2022/11/28 11:04:29;;;;;;;;;5.50;5.50;;;;;;;;4928562;29;9495;-75
2022/11/28 11:07:04;;;;;;;;;10.00;8.25;;;;;;;;4922337;29;9564;-75
2022/11/28 11:09:32;;;;;;;;;10.50;7.00;;;;;;;;4926520;29;10383;-73
2022/11/28 11:12:01;;;;;;;;;5.75;4.75;;;;;;;;4926301;29;9528;-74
2022/11/28 11:14:35;;;;;;;;;6.00;6.00;;;;;;;;4924733;29;9679;-72
2022/11/28 11:17:03;;;;;;;;;7.50;5.00;;;;;;;;4925327;29;10635;-75
2022/11/28 11:19:33;;;;;;;;;6.00;4.50;;;;;;;;4929046;29;9585;-74
2022/11/28 11:22:07;;;;;;;;;7.50;5.00;;;;;;;;4929603;29;9694;-78
2022/11/28 11:24:35;;;;;;;;;6.25;6.25;;;;;;;;4927722;29;9731;-79
2022/11/28 11:27:08;;;;;;;;;5.50;5.50;;;;;;;;4930042;29;9561;-76
2022/11/28 11:29:39;;;;;;;;;8.67;6.00;;;;;;;;4929131;29;9491;-75
2022/11/28 11:32:17;;;;;;;;;7.00;5.33;;;;;;;;4929413;29;9628;-74
2022/11/28 11:34:46;;;;;;;;;5.00;5.00;;;;;;;;4924860;29;9498;-75
2022/11/28 11:37:33;;;;;;;;;5.00;2.00;;;;;;;;4923738;29;9422;-73
2022/11/28 11:40:04;;;;;;;;;7.00;5.00;;;;;;;;4923731;29;9408;-76
2022/11/28 11:42:33;;;;;;;;;6.50;6.50;;;;;;;;4928277;29;9501;-76
2022/11/28 11:45:26;;;;;;;;;8.00;8.00;;;;;;;;4931477;29;10223;-77
2022/11/28 11:47:54;;;;;;;;;6.00;6.00;;;;;;;;4929935;29;9596;-78
2022/11/28 11:50:23;;;;;;;;;6.75;4.00;;;;;;;;4926913;29;9526;-76
2022/11/28 11:53:06;;;;;;;;;4.00;4.00;;;;;;;;4925951;29;9549;-75
2022/11/28 11:55:40;;;;;;;;;4.00;4.00;;;;;;;;4927045;28;9726;-77
2022/11/28 11:58:11;;;;;;;;;7.50;7.00;;;;;;;;4928152;29;9623;-76
2022/11/28 12:00:40;;;;;;;;;5.00;5.00;;;;;;;;4923728;29;9631;-77
2022/11/28 12:03:17;;;;;;;;;3.25;3.25;;;;;;;;4924144;29;9711;-78
2022/11/28 12:05:52;;;;;;;;;8.75;5.00;;;;;;;;4925469;29;9560;-78
2022/11/28 12:08:27;;;;;;;;;4.00;4.00;;;;;;;;4923723;29;9535;-76
2022/11/28 12:11:01;;;;;;;;;9.75;8.00;;;;;;;;4926548;29;9485;-72
2022/11/28 12:13:30;;;;;;;;;10.00;8.50;;;;;;;;4925806;29;9611;-76
2022/11/28 12:16:04;;;;;;;;;8.00;5.75;;;;;;;;4925789;29;9414;-76
2022/11/28 12:18:37;;;;;;;;;4.75;4.75;;;;;;;;4925945;29;9453;-78
2022/11/28 12:21:13;;;;;;;;;8.33;8.33;;;;;;;;4922480;29;9432;-73
2022/11/28 12:23:56;;;;;;;;;4.33;4.33;;;;;;;;4923798;29;9325;-75
2022/11/28 12:26:27;;;;;;;;;5.33;5.33;;;;;;;;4925631;29;9083;-77
2022/11/28 12:29:07;;;;;;;;;8.00;5.00;;;;;;;;4922665;29;9110;-75
2022/11/28 12:31:44;;;;;;;;;6.50;4.50;;;;;;;;4923240;29;8883;-75
2022/11/28 12:34:24;;;;;;;;;3.00;3.00;;;;;;;;4923525;29;8890;-75
2022/11/28 12:37:02;;;;;;;;;5.50;4.00;;;;;;;;4925311;29;9006;-74
2022/11/28 12:39:39;;;;;;;;;4.00;2.25;;;;;;;;4927434;29;9754;-78
2022/11/28 12:42:24;;;;;;;;;2.50;2.00;;;;;;;;4924218;28;8851;-75
2022/11/28 12:45:13;;;;;;;;;1.50;1.00;;;;;;;;4916859;29;8908;-73
2022/11/28 12:47:50;;;;;;;;;4.00;3.00;;;;;;;;4923641;29;8835;-73
2022/11/28 12:50:30;;;;;;;;;4.00;2.75;;;;;;;;4926439;29;8875;-74
2022/11/28 12:53:08;;;;;;;;;3.75;3.75;;;;;;;;4925178;29;8855;-77
2022/11/28 12:55:47;;;;;;;;;2.50;2.50;;;;;;;;4925029;29;8852;-75
2022/11/28 12:58:21;;;;;;;;;4.00;4.00;;;;;;;;4923104;29;8911;-76
2022/11/28 13:00:58;;;;;;;;;4.00;3.00;;;;;;;;4924091;29;9677;-75
2022/11/28 13:03:39;;;;;;;;;3.75;3.75;;;;;;;;4926317;29;8883;-75
2022/11/28 13:06:15;;;;;;;;;2.00;2.00;;;;;;;;4921709;29;9464;-75
2022/11/28 13:08:55;;;;;;;;;8.00;3.25;;;;;;;;4924555;29;8879;-76
2022/11/28 13:11:33;;;;;;;;;3.50;3.50;;;;;;;;4921111;29;8886;-76
2022/11/28 13:14:08;;;;;;;;;3.75;2.00;;;;;;;;4924662;29;8868;-76
2022/11/28 13:16:43;;;;;;;;;5.75;3.00;;;;;;;;4922969;29;8848;-74
2022/11/28 13:19:16;;;;;;;;;3.25;3.25;;;;;;;;4923227;29;8878;-74
2022/11/28 13:21:49;;;;;;;;;3.25;2.25;;;;;;;;4921832;29;9673;-74
2022/11/28 13:24:27;;;;;;;;;4.75;3.25;;;;;;;;4924888;29;8859;-76
2022/11/28 13:27:03;;;;;;;;;1.00;1.00;;;;;;;;4925143;29;8887;-76
2022/11/28 13:29:39;;;;;;;;;4.25;3.00;;;;;;;;4924271;29;8859;-76
2022/11/28 13:32:14;;;;;;;;;3.50;3.50;;;;;;;;4923562;29;9641;-75
2022/11/28 13:34:42;;;;;;;;;3.00;2.00;;;;;;;;4926383;29;8851;-75
2022/11/28 13:37:14;;;;;;;;;2.75;2.75;;;;;;;;4923906;29;8941;-74
2022/11/28 13:39:47;;;;;;;;;3.75;2.00;;;;;;;;4920235;29;8855;-75
2022/11/28 13:42:26;;;;;;;;;2.00;2.00;;;;;;;;4922605;29;8994;-74
2022/11/28 13:45:01;;;;;;;;;2.25;2.00;;;;;;;;4924451;29;8882;-77
2022/11/28 13:47:33;;;;;;;;;2.25;2.25;;;;;;;;4925292;29;8881;-74
2022/11/28 13:50:33;;;;;;;;;2.50;2.50;;;;;;;;4924706;29;8999;-75
2022/11/28 13:53:02;;;;;;;;;2.50;1.00;;;;;;;;4914584;28;8893;-75
2022/11/28 13:55:45;;;;;;;;;4.75;2.50;;;;;;;;4923377;29;8879;-76
2022/11/28 13:58:23;;;;;;;;;3.00;2.50;;;;;;;;4921709;29;8842;-76
2022/11/28 14:01:08;;;;;;;;;1.50;1.50;;;;;;;;4920554;29;8859;-75
2022/11/28 14:03:44;;;;;;;;;3.00;3.00;;;;;;;;4923026;29;8879;-75
2022/11/28 14:06:14;;;;;;;;;1.75;1.75;;;;;;;;4922661;29;8875;-74
2022/11/28 14:08:43;;;;;;;;;1.00;1.00;;;;;;;;4920489;29;8897;-74
2022/11/28 14:11:48;;;;;;;;;4.25;3.00;;;;;;;;4923877;29;8856;-75
2022/11/28 14:14:44;;;;;;;;;3.25;3.00;;;;;;;;4908080;29;8937;-72
2022/11/28 14:17:30;;;;;;;;;4.00;2.25;;;;;;;;4920511;29;8871;-75
2022/11/28 14:20:12;;;;;;;;;6.00;2.00;;;;;;;;4921879;29;8875;-73
2022/11/28 14:22:52;;;;;;;;;4.00;2.75;;;;;;;;4922959;29;8859;-72
2022/11/28 14:25:23;;;;;;;;;2.25;2.00;;;;;;;;4925653;29;8832;-72
2022/11/28 14:27:53;;;;;;;;;2.50;2.50;;;;;;;;4926785;29;8889;-71
2022/11/28 14:30:31;;;;;;;;;4.00;2.25;;;;;;;;4923889;29;8893;-72
2022/11/28 14:33:03;;;;;;;;;5.00;4.00;;;;;;;;4922048;29;8866;-72
2022/11/28 14:36:03;;;;;;;;;2.75;2.75;;;;;;;;4905627;29;8881;-72
2022/11/28 14:38:46;;;;;;;;;2.75;2.00;;;;;;;;4923272;29;8870;-72
2022/11/28 14:41:15;;;;;;;;;3.75;2.25;;;;;;;;4922245;29;8881;-75
2022/11/28 14:43:47;;;;;;;;;3.25;3.00;;;;;;;;4922761;29;9626;-71
2022/11/28 14:46:33;;;;;;;;;3.00;3.00;;;;;;;;4924611;29;8870;-70
2022/11/28 14:49:20;;;;;;;;;6.00;3.25;;;;;;;;4921835;29;8883;-71
2022/11/28 14:52:09;;;;;;;;;1.25;1.25;;;;;;;;4921672;29;8997;-71
2022/11/28 14:54:38;;;;;;;;;3.75;3.00;;;;;;;;4919822;29;8877;-72
2022/11/28 14:57:14;;;;;;;;;4.00;2.00;;;;;;;;4920050;29;8874;-72
2022/11/28 14:59:42;;;;;;;;;1.75;1.75;;;;;;;;4919664;29;9657;-71
2022/11/28 15:02:35;;;;;;;;;2.33;2.33;;;;;;;;4919987;29;8875;-71
2022/11/28 15:05:24;;;;;;;;;3.33;2.00;;;;;;;;4921567;29;8922;-72
2022/11/28 15:08:11;;;;;;;;;3.33;2.33;;;;;;;;4919140;29;8994;-73